createdAt,value
2022-12-26T00:01:20.234Z,100402.97
2022-12-26T00:03:46.648Z,100396.59
2022-12-26T00:06:17.944Z,100393.50
2022-12-26T00:08:44.728Z,100388.97
2022-12-26T00:11:11.835Z,100388.16
2022-12-26T00:13:41.698Z,100385.69
2022-12-26T00:16:12.675Z,100385.47
2022-12-26T00:18:39.272Z,100378.69
2022-12-26T00:21:09.710Z,100373.72
2022-12-26T00:23:36.746Z,100381.03
2022-12-26T00:26:07.456Z,100382.06
2022-12-26T00:28:33.971Z,100385.28
2022-12-26T00:31:03.628Z,100391.50
2022-12-26T00:33:29.919Z,100376.44
2022-12-26T00:36:00.664Z,100384.81
2022-12-26T00:38:26.996Z,100376.59
2022-12-26T00:40:53.320Z,100363.00
2022-12-26T00:43:19.652Z,100359.88
2022-12-26T00:45:47.925Z,100369.97
2022-12-26T00:48:14.326Z,100375.81
2022-12-26T00:50:40.679Z,100378.28
2022-12-26T00:53:07.794Z,100390.38
2022-12-26T00:55:34.315Z,100382.34
2022-12-26T00:58:01.433Z,100389.75
2022-12-26T01:00:28.692Z,100399.31
2022-12-26T01:02:55.327Z,100402.06
2022-12-26T01:05:22.429Z,100402.41
2022-12-26T01:08:21.086Z,100402.34
2022-12-26T01:10:35.153Z,100395.75
2022-12-26T01:13:02.143Z,100397.50
2022-12-26T01:15:28.602Z,100405.50
2022-12-26T01:17:54.920Z,100405.69
2022-12-26T01:20:21.974Z,100400.78
2022-12-26T01:22:48.334Z,100395.41
2022-12-26T01:25:14.617Z,100402.66
2022-12-26T01:27:40.968Z,100407.50
2022-12-26T01:30:07.742Z,100405.44
2022-12-26T01:32:34.057Z,100393.09
2022-12-26T01:35:01.347Z,100386.84
2022-12-26T01:37:28.694Z,100386.78
2022-12-26T01:39:56.285Z,100387.06
2022-12-26T01:42:24.080Z,100388.31
2022-12-26T01:44:59.527Z,100388.00
2022-12-26T01:47:34.398Z,100384.84
2022-12-26T01:50:00.844Z,100376.16
2022-12-26T01:52:35.338Z,100374.16
2022-12-26T01:55:03.688Z,100389.19
2022-12-26T01:57:33.346Z,100385.19
2022-12-26T02:00:01.526Z,100392.38
2022-12-26T02:02:29.578Z,100382.34
2022-12-26T02:05:16.164Z,100376.09
2022-12-26T02:07:45.044Z,100391.25
2022-12-26T02:10:14.283Z,100392.78
2022-12-26T02:12:41.135Z,100390.16
2022-12-26T02:15:08.974Z,100382.78
2022-12-26T02:17:36.099Z,100389.41
2022-12-26T02:20:05.426Z,100379.69
2022-12-26T02:22:47.107Z,100384.59
2022-12-26T02:25:16.394Z,100393.25
2022-12-26T02:28:09.625Z,100400.59
2022-12-26T02:30:39.762Z,100400.25
2022-12-26T02:33:14.693Z,100413.00
2022-12-26T02:35:59.901Z,100409.44
2022-12-26T02:38:26.161Z,100412.88
2022-12-26T02:40:56.613Z,100411.72
2022-12-26T02:43:29.265Z,100409.44
2022-12-26T02:46:21.847Z,100417.88
2022-12-26T02:49:00.344Z,100417.72
2022-12-26T02:51:55.152Z,100411.31
2022-12-26T02:54:53.593Z,100417.81
2022-12-26T02:57:40.414Z,100414.72
2022-12-26T03:00:29.917Z,100410.44
2022-12-26T03:03:20.908Z,100413.50
2022-12-26T03:06:12.672Z,100415.19
2022-12-26T03:09:09.856Z,100412.38
2022-12-26T03:11:59.606Z,100419.59
2022-12-26T03:14:35.989Z,100403.53
2022-12-26T03:17:20.130Z,100414.53
2022-12-26T03:19:59.593Z,100414.50
2022-12-26T03:22:31.370Z,100414.06
2022-12-26T03:25:18.338Z,100408.25
2022-12-26T03:27:44.770Z,100409.38
2022-12-26T03:30:29.625Z,100401.63
2022-12-26T03:32:57.217Z,100402.91
2022-12-26T03:35:24.027Z,100402.19
2022-12-26T03:37:56.144Z,100394.41
2022-12-26T03:40:44.739Z,100400.75
2022-12-26T03:43:35.845Z,100401.22
2022-12-26T03:46:20.926Z,100398.44
2022-12-26T03:49:14.313Z,100398.22
2022-12-26T03:51:59.048Z,100401.63
2022-12-26T03:54:50.677Z,100394.41
2022-12-26T03:57:37.258Z,100406.13
2022-12-26T04:00:29.673Z,100405.69
2022-12-26T04:03:17.884Z,100408.13
2022-12-26T04:06:04.077Z,100406.19
2022-12-26T04:08:53.043Z,100404.88
2022-12-26T04:11:39.371Z,100401.34
2022-12-26T04:14:24.185Z,100403.63
2022-12-26T04:17:12.129Z,100404.03
2022-12-26T04:19:44.423Z,100407.97
2022-12-26T04:22:46.856Z,100399.75
2022-12-26T04:25:50.379Z,100407.16
2022-12-26T04:28:37.283Z,100399.34
2022-12-26T04:31:25.838Z,100396.22
2022-12-26T04:34:12.604Z,100401.34
2022-12-26T04:37:14.702Z,100395.63
2022-12-26T04:40:02.728Z,100391.69
2022-12-26T04:42:48.900Z,100391.88
2022-12-26T04:45:15.626Z,100392.31
2022-12-26T04:48:01.883Z,100407.16
2022-12-26T04:50:28.277Z,100400.16
2022-12-26T04:53:01.178Z,100407.16
2022-12-26T04:55:29.015Z,100412.94
2022-12-26T04:57:55.500Z,100412.06
2022-12-26T05:00:24.048Z,100407.16
2022-12-26T05:03:14.577Z,100413.34
2022-12-26T05:06:14.916Z,100418.03
2022-12-26T05:09:00.686Z,100417.03
2022-12-26T05:11:27.489Z,100420.28
2022-12-26T05:13:54.454Z,100420.50
2022-12-26T05:16:39.559Z,100420.69
2022-12-26T05:19:24.877Z,100409.59
2022-12-26T05:22:10.049Z,100416.22
2022-12-26T05:24:57.581Z,100415.56
2022-12-26T05:27:42.972Z,100410.84
2022-12-26T05:30:09.807Z,100409.63
2022-12-26T05:32:54.931Z,100413.31
2022-12-26T05:35:21.246Z,100416.22
2022-12-26T05:37:47.580Z,100405.09
2022-12-26T05:40:13.963Z,100417.88
2022-12-26T05:42:40.331Z,100416.41
2022-12-26T05:45:06.910Z,100412.13
2022-12-26T05:47:33.315Z,100421.16
2022-12-26T05:49:59.929Z,100427.56
2022-12-26T05:52:26.251Z,100428.13
2022-12-26T05:54:52.595Z,100418.66
2022-12-26T05:57:19.001Z,100414.53
2022-12-26T05:59:45.339Z,100415.19
2022-12-26T06:02:11.835Z,100415.56
2022-12-26T06:04:38.352Z,100403.03
2022-12-26T06:07:04.712Z,100402.63
2022-12-26T06:09:31.238Z,100408.56
2022-12-26T06:11:57.533Z,100403.88
2022-12-26T06:14:24.080Z,100405.28
2022-12-26T06:16:50.450Z,100400.38
2022-12-26T06:19:17.035Z,100392.09
2022-12-26T06:21:43.385Z,100395.63
2022-12-26T06:24:09.685Z,100408.75
2022-12-26T06:26:36.155Z,100408.41
2022-12-26T06:29:02.469Z,100413.91
2022-12-26T06:31:28.834Z,100405.09
2022-12-26T06:33:56.369Z,100398.91
2022-12-26T06:36:23.775Z,100408.00
2022-12-26T06:38:50.133Z,100406.19
2022-12-26T06:41:17.663Z,100410.19
2022-12-26T06:43:44.143Z,100415.63
2022-12-26T06:46:12.567Z,100414.91
2022-12-26T06:48:41.905Z,100415.81
2022-12-26T06:51:10.963Z,100413.53
2022-12-26T06:53:37.332Z,100413.56
2022-12-26T06:56:08.264Z,100423.22
2022-12-26T06:58:34.586Z,100418.66
2022-12-26T07:01:05.004Z,100432.97
2022-12-26T07:03:31.366Z,100443.56
2022-12-26T07:06:01.608Z,100454.19
2022-12-26T07:08:27.911Z,100454.75
2022-12-26T07:10:54.195Z,100452.38
2022-12-26T07:13:20.497Z,100441.84
2022-12-26T07:15:46.804Z,100439.06
2022-12-26T07:18:13.113Z,100437.56
2022-12-26T07:20:39.479Z,100443.41
2022-12-26T07:23:05.822Z,100461.47
2022-12-26T07:25:32.263Z,100454.25
2022-12-26T07:28:00.440Z,100471.41
2022-12-26T07:30:26.788Z,100470.94
2022-12-26T07:32:53.080Z,100473.41
2022-12-26T07:35:19.618Z,100470.50
2022-12-26T07:37:45.944Z,100474.69
2022-12-26T07:40:12.625Z,100478.03
2022-12-26T07:42:38.956Z,100471.19
2022-12-26T07:45:05.507Z,100465.22
2022-12-26T07:47:31.800Z,100467.25
2022-12-26T07:49:58.125Z,100477.97
2022-12-26T07:52:24.561Z,100473.81
2022-12-26T07:54:50.917Z,100472.47
2022-12-26T07:57:46.847Z,100473.41
2022-12-26T08:00:04.871Z,100478.28
2022-12-26T08:02:31.418Z,100468.78
2022-12-26T08:04:57.855Z,100469.59
2022-12-26T08:07:24.206Z,100456.03
2022-12-26T08:09:50.597Z,100453.53
2022-12-26T08:12:17.329Z,100460.31
2022-12-26T08:14:43.631Z,100438.50
2022-12-26T08:17:10.089Z,100431.91
2022-12-26T08:19:36.473Z,100432.13
2022-12-26T08:22:02.789Z,100427.38
2022-12-26T08:24:29.221Z,100429.22
2022-12-26T08:26:55.510Z,100431.94
2022-12-26T08:29:21.864Z,100434.31
2022-12-26T08:31:48.166Z,100435.22
2022-12-26T08:34:14.539Z,100420.16
2022-12-26T08:36:40.870Z,100433.94
2022-12-26T08:39:07.782Z,100435.00
2022-12-26T08:41:34.088Z,100433.41
2022-12-26T08:46:46.756Z,100437.41
2022-12-26T08:49:13.243Z,100419.13
2022-12-26T08:51:39.613Z,100415.16
2022-12-26T08:54:06.494Z,100421.59
2022-12-26T08:56:32.937Z,100422.41
2022-12-26T08:58:59.435Z,100425.09
2022-12-26T09:01:27.229Z,100425.13
2022-12-26T09:03:54.712Z,100415.63
2022-12-26T09:06:21.515Z,100424.91
2022-12-26T09:08:48.086Z,100427.41
2022-12-26T09:11:15.696Z,100429.88
2022-12-26T09:13:42.779Z,100440.59
2022-12-26T09:16:13.374Z,100442.88
2022-12-26T09:18:40.087Z,100444.09
2022-12-26T09:21:08.324Z,100450.50
2022-12-26T09:23:35.566Z,100450.09
2022-12-26T09:26:05.271Z,100449.88
2022-12-26T09:28:31.553Z,100451.31
2022-12-26T09:31:05.509Z,100455.81
2022-12-26T09:33:33.407Z,100461.00
2022-12-26T09:36:04.500Z,100457.31
2022-12-26T09:38:32.614Z,100456.25
2022-12-26T09:41:02.015Z,100462.91
2022-12-26T09:43:50.189Z,100457.94
2022-12-26T09:46:21.679Z,100463.97
2022-12-26T09:49:10.923Z,100457.09
2022-12-26T09:51:39.879Z,100458.97
2022-12-26T09:54:08.304Z,100465.59
2022-12-26T09:57:01.901Z,100467.50
2022-12-26T09:59:26.100Z,100467.25
2022-12-26T10:01:53.441Z,100471.88
2022-12-26T10:04:29.992Z,100460.72
2022-12-26T10:07:05.826Z,100458.28
2022-12-26T10:09:44.594Z,100465.19
2022-12-26T10:12:29.803Z,100468.09
2022-12-26T10:14:59.182Z,100453.31
2022-12-26T10:17:36.742Z,100451.50
2022-12-26T10:20:06.947Z,100466.16
2022-12-26T10:22:40.081Z,100449.66
2022-12-26T10:25:14.915Z,100442.41
2022-12-26T10:27:43.874Z,100447.97
2022-12-26T10:30:15.433Z,100440.34
2022-12-26T10:32:43.901Z,100442.25
2022-12-26T10:35:20.435Z,100437.59
2022-12-26T10:37:48.212Z,100435.66
2022-12-26T10:40:23.180Z,100430.28
2022-12-26T10:42:57.186Z,100429.22
2022-12-26T10:45:43.380Z,100426.59
2022-12-26T10:48:13.100Z,100418.31
2022-12-26T10:50:40.275Z,100418.91
2022-12-26T10:53:07.608Z,100418.91
2022-12-26T10:55:35.443Z,100421.41
2022-12-26T10:58:09.321Z,100415.41
2022-12-26T11:00:35.721Z,100419.47
2022-12-26T11:03:06.976Z,100402.00
2022-12-26T11:08:27.643Z,100393.56
2022-12-26T11:11:03.360Z,100400.13
2022-12-26T11:13:32.022Z,100391.06
2022-12-26T11:15:58.405Z,100398.84
2022-12-26T11:18:33.658Z,100396.44
2022-12-26T11:21:17.978Z,100399.94
2022-12-26T11:23:45.082Z,100399.13
2022-12-26T11:26:20.352Z,100395.41
2022-12-26T11:28:46.676Z,100393.09
2022-12-26T11:31:26.639Z,100389.84
2022-12-26T11:33:53.160Z,100375.81
2022-12-26T11:36:22.307Z,100382.84
2022-12-26T11:38:56.553Z,100377.47
2022-12-26T11:41:32.016Z,100371.88
2022-12-26T11:44:01.653Z,100360.97
2022-12-26T11:46:42.132Z,100362.41
2022-12-26T11:49:24.893Z,100364.50
2022-12-26T11:51:55.623Z,100366.97
2022-12-26T11:54:29.889Z,100364.63
2022-12-26T11:57:00.823Z,100356.00
2022-12-26T11:59:27.653Z,100357.69
2022-12-26T12:02:12.921Z,100363.44
2022-12-26T12:04:39.314Z,100355.16
2022-12-26T12:07:13.583Z,100349.38
2022-12-26T12:09:39.857Z,100347.78
2022-12-26T12:12:20.186Z,100337.28
2022-12-26T12:14:55.147Z,100335.41
2022-12-26T12:17:21.835Z,100329.59
2022-12-26T12:19:54.285Z,100330.06
2022-12-26T12:22:34.612Z,100326.75
2022-12-26T12:25:03.679Z,100329.22
2022-12-26T12:27:32.940Z,100323.22
2022-12-26T12:30:16.933Z,100330.84
2022-12-26T12:32:56.729Z,100313.50
2022-12-26T12:35:26.784Z,100325.41
2022-12-26T12:38:11.860Z,100329.16
2022-12-26T12:40:38.195Z,100330.47
2022-12-26T12:43:22.798Z,100332.53
2022-12-26T12:45:58.912Z,100340.25
2022-12-26T12:48:37.142Z,100339.72
2022-12-26T12:51:03.443Z,100331.69
2022-12-26T12:53:52.259Z,100338.94
2022-12-26T12:56:37.015Z,100332.09
2022-12-26T12:59:06.459Z,100328.59
2022-12-26T13:01:45.122Z,100318.09
2022-12-26T13:04:27.313Z,100311.91
2022-12-26T13:06:56.666Z,100315.13
2022-12-26T13:09:26.125Z,100305.03
2022-12-26T13:11:52.414Z,100309.59
2022-12-26T13:14:37.594Z,100311.06
2022-12-26T13:17:13.130Z,100307.59
2022-12-26T13:19:52.674Z,100318.66
2022-12-26T13:22:50.033Z,100325.09
2022-12-26T13:25:18.272Z,100327.16
2022-12-26T13:27:46.850Z,100335.69
2022-12-26T13:30:15.650Z,100335.56
2022-12-26T13:32:46.787Z,100341.97
2022-12-26T13:35:31.928Z,100366.53
2022-12-26T13:38:04.183Z,100377.19
2022-12-26T13:40:31.577Z,100383.31
2022-12-26T13:43:25.916Z,100388.75
2022-12-26T13:45:54.868Z,100391.06
2022-12-26T13:48:21.300Z,100390.25
2022-12-26T13:50:56.117Z,100405.84
2022-12-26T13:53:26.064Z,100416.63
2022-12-26T13:55:54.291Z,100433.56
2022-12-26T13:58:26.670Z,100444.69
2022-12-26T14:00:56.264Z,100440.75
2022-12-26T14:03:45.962Z,100463.38
2022-12-26T14:06:41.983Z,100482.09
2022-12-26T14:09:28.555Z,100485.69
2022-12-26T14:12:13.589Z,100489.25
2022-12-26T14:14:54.619Z,100508.47
2022-12-26T14:17:33.336Z,100505.78
2022-12-26T14:20:14.478Z,100499.03
2022-12-26T14:22:59.692Z,100510.50
2022-12-26T14:25:29.857Z,100510.38
2022-12-26T14:28:10.751Z,100511.94
2022-12-26T14:30:50.736Z,100512.94
2022-12-26T14:33:25.709Z,100527.53
2022-12-26T14:35:51.981Z,100527.66
2022-12-26T14:38:37.066Z,100540.88
2022-12-26T14:41:06.301Z,100555.53
2022-12-26T14:43:34.852Z,100571.28
2022-12-26T14:46:02.250Z,100564.13
2022-12-26T14:48:28.612Z,100577.00
2022-12-26T14:51:15.341Z,100587.34
2022-12-26T14:53:43.163Z,100579.19
2022-12-26T14:56:15.404Z,100595.72
2022-12-26T14:58:41.901Z,100601.81
2022-12-26T15:01:20.650Z,100611.97
2022-12-26T15:03:53.359Z,100617.94
2022-12-26T15:06:19.941Z,100619.38
2022-12-26T15:08:49.696Z,100626.38
2022-12-26T15:11:34.876Z,100646.84
2022-12-26T15:14:26.385Z,100640.78
2022-12-26T15:16:59.655Z,100649.50
2022-12-26T15:19:45.264Z,100658.78
2022-12-26T15:22:39.941Z,100677.13
2022-12-26T15:25:25.474Z,100685.03
2022-12-26T15:27:58.024Z,100685.56
2022-12-26T15:30:24.309Z,100684.56
2022-12-26T15:33:01.395Z,100689.41
2022-12-26T15:35:30.407Z,100700.38
2022-12-26T15:38:15.632Z,100690.78
2022-12-26T15:40:51.425Z,100686.78
2022-12-26T15:43:36.653Z,100688.06
2022-12-26T15:46:24.448Z,100696.56
2022-12-26T15:49:04.543Z,100703.53
2022-12-26T15:51:37.035Z,100694.06
2022-12-26T15:54:22.163Z,100701.59
2022-12-26T15:56:52.114Z,100698.59
2022-12-26T15:59:24.770Z,100686.31
2022-12-26T16:01:54.007Z,100700.22
2022-12-26T16:04:39.417Z,100695.72
2022-12-26T16:07:20.634Z,100701.91
2022-12-26T16:09:52.918Z,100698.50
2022-12-26T16:12:24.753Z,100705.34
2022-12-26T16:15:00.556Z,100706.50
2022-12-26T16:17:28.006Z,100710.25
2022-12-26T16:19:54.555Z,100711.28
2022-12-26T16:23:05.591Z,100720.09
2022-12-26T16:25:33.000Z,100726.81
2022-12-26T16:28:01.751Z,100735.97
2022-12-26T16:30:39.890Z,100729.84
2022-12-26T16:33:06.877Z,100741.75
2022-12-26T16:35:34.696Z,100743.63
2022-12-26T16:38:02.860Z,100749.25
2022-12-26T16:40:29.415Z,100746.81
2022-12-26T16:42:58.019Z,100759.41
2022-12-26T16:45:25.147Z,100752.44
2022-12-26T16:47:52.743Z,100746.19
2022-12-26T16:50:24.219Z,100764.81
2022-12-26T16:53:02.830Z,100758.66
2022-12-26T16:55:41.974Z,100771.22
2022-12-26T16:58:13.798Z,100766.84
2022-12-26T17:00:45.247Z,100777.78
2022-12-26T17:03:24.912Z,100771.34
2022-12-26T17:05:51.371Z,100776.66
2022-12-26T17:08:17.770Z,100779.59
2022-12-26T17:10:49.129Z,100785.34
2022-12-26T17:13:22.306Z,100782.75
2022-12-26T17:15:53.723Z,100790.97
2022-12-26T17:18:39.175Z,100794.34
2022-12-26T17:21:24.791Z,100787.94
2022-12-26T17:24:03.441Z,100785.84
2022-12-26T17:26:30.307Z,100795.97
2022-12-26T17:28:57.058Z,100807.44
2022-12-26T17:31:29.023Z,100811.00
2022-12-26T17:33:59.201Z,100813.84
2022-12-26T17:39:21.698Z,100821.16
2022-12-26T17:41:52.857Z,100811.47
2022-12-26T17:44:35.925Z,100812.75
2022-12-26T17:47:07.311Z,100817.94
2022-12-26T17:49:34.205Z,100819.22
2022-12-26T17:52:02.115Z,100814.75
2022-12-26T17:54:28.939Z,100820.69
2022-12-26T17:56:55.583Z,100815.34
2022-12-26T17:59:22.065Z,100817.66
2022-12-26T18:01:48.876Z,100821.00
2022-12-26T18:04:15.634Z,100811.28
2022-12-26T18:06:42.351Z,100809.34
2022-12-26T18:09:13.152Z,100816.03
2022-12-26T18:11:39.641Z,100821.38
2022-12-26T18:14:06.513Z,100816.19
2022-12-26T18:16:33.844Z,100822.31
2022-12-26T18:19:01.568Z,100825.69
2022-12-26T18:21:28.153Z,100823.38
2022-12-26T18:23:55.594Z,100828.97
2022-12-26T18:26:29.102Z,100833.50
2022-12-26T18:28:56.087Z,100844.00
2022-12-26T18:31:22.975Z,100842.31
2022-12-26T18:33:49.961Z,100844.66
2022-12-26T18:36:17.660Z,100834.69
2022-12-26T18:38:48.643Z,100837.50
2022-12-26T18:41:17.150Z,100838.47
2022-12-26T18:43:43.739Z,100835.66
2022-12-26T18:46:20.664Z,100835.88
2022-12-26T18:48:47.743Z,100839.81
2022-12-26T18:51:14.421Z,100845.38
2022-12-26T18:53:41.227Z,100846.28
2022-12-26T18:56:11.095Z,100848.16
2022-12-26T18:58:37.853Z,100857.13
2022-12-26T19:01:04.779Z,100864.00
2022-12-26T19:03:33.501Z,100861.63
2022-12-26T19:05:59.944Z,100866.28
2022-12-26T19:08:26.307Z,100875.13
2022-12-26T19:10:52.602Z,100880.59
2022-12-26T19:13:19.357Z,100885.03
2022-12-26T19:15:47.130Z,100886.34
2022-12-26T19:18:13.746Z,100894.22
2022-12-26T19:20:44.091Z,100900.22
2022-12-26T19:23:11.578Z,100899.38
2022-12-26T19:25:38.231Z,100906.28
2022-12-26T19:28:04.764Z,100889.47
2022-12-26T19:30:38.551Z,100895.81
2022-12-26T19:33:05.703Z,100900.84
2022-12-26T19:35:32.253Z,100902.66
2022-12-26T19:37:58.817Z,100896.78
2022-12-26T19:40:25.997Z,100886.38
2022-12-26T19:42:52.740Z,100890.94
2022-12-26T19:45:19.411Z,100901.19
2022-12-26T19:47:46.284Z,100903.84
2022-12-26T19:50:13.146Z,100915.34
2022-12-26T19:52:41.580Z,100917.19
2022-12-26T19:55:09.222Z,100919.16
2022-12-26T19:57:35.988Z,100916.88
2022-12-26T20:00:03.611Z,100913.75
2022-12-26T20:02:30.520Z,100922.16
2022-12-26T20:04:57.432Z,100932.69
2022-12-26T20:07:23.791Z,100934.59
2022-12-26T20:09:52.722Z,100933.88
2022-12-26T20:12:22.064Z,100954.91
2022-12-26T20:14:51.445Z,100954.94
2022-12-26T20:17:21.919Z,100955.34
2022-12-26T20:19:50.190Z,100963.88
2022-12-26T20:22:21.456Z,100962.84
2022-12-26T20:24:54.009Z,100961.38
2022-12-26T20:27:23.496Z,100963.72
2022-12-26T20:29:50.433Z,100956.97
2022-12-26T20:32:16.844Z,100966.19
2022-12-26T20:34:43.241Z,100974.03
2022-12-26T20:37:09.755Z,100972.41
2022-12-26T20:39:36.671Z,100976.09
2022-12-26T20:42:03.082Z,100979.97
2022-12-26T20:44:29.502Z,100989.19
2022-12-26T20:46:55.893Z,100991.09
2022-12-26T20:49:22.706Z,100993.34
2022-12-26T20:52:03.729Z,100990.31
2022-12-26T20:54:30.101Z,100989.66
2022-12-26T20:56:57.606Z,100991.22
2022-12-26T20:59:25.289Z,101002.19
2022-12-26T21:01:53.178Z,100994.78
2022-12-26T21:04:20.729Z,101005.63
2022-12-26T21:06:50.360Z,101003.78
2022-12-26T21:09:16.843Z,100999.91
2022-12-26T21:11:45.304Z,101003.41
2022-12-26T21:14:16.507Z,100997.53
2022-12-26T21:16:53.386Z,101011.25
2022-12-26T21:19:20.989Z,101013.84
2022-12-26T21:21:48.965Z,101021.31
2022-12-26T21:24:27.153Z,101026.50
2022-12-26T21:26:54.944Z,101020.72
2022-12-26T21:29:26.220Z,101034.31
2022-12-26T21:31:53.996Z,101029.91
2022-12-26T21:34:21.944Z,101031.09
2022-12-26T21:37:08.244Z,101031.00
2022-12-26T21:39:36.169Z,101030.72
2022-12-26T21:42:05.080Z,101032.84
2022-12-26T21:44:31.466Z,101039.97
2022-12-26T21:46:57.998Z,101039.50
2022-12-26T21:49:24.480Z,101043.47
2022-12-26T21:51:51.077Z,101039.47
2022-12-26T21:54:36.148Z,101039.16
2022-12-26T21:57:02.794Z,101049.28
2022-12-26T21:59:48.120Z,101057.25
2022-12-26T22:02:33.504Z,101053.03
2022-12-26T22:05:00.947Z,101063.38
2022-12-26T22:07:27.953Z,101057.16
2022-12-26T22:09:54.360Z,101050.06
2022-12-26T22:12:39.275Z,101057.66
2022-12-26T22:15:06.331Z,101063.47
2022-12-26T22:17:32.976Z,101067.63
2022-12-26T22:19:59.310Z,101070.34
2022-12-26T22:22:25.692Z,101074.06
2022-12-26T22:24:52.125Z,101078.69
2022-12-26T22:27:18.665Z,101081.38
2022-12-26T22:29:45.110Z,101077.88
2022-12-26T22:32:11.476Z,101075.53
2022-12-26T22:34:37.879Z,101113.19
2022-12-26T22:37:04.725Z,101080.41
2022-12-26T22:39:31.395Z,101090.94
2022-12-26T22:42:02.290Z,101094.50
2022-12-26T22:44:28.988Z,101083.13
2022-12-26T22:46:57.039Z,101087.53
2022-12-26T22:49:23.471Z,101103.00
2022-12-26T22:51:49.947Z,101096.25
2022-12-26T22:54:16.278Z,101114.09
2022-12-26T22:56:43.058Z,101115.28
2022-12-26T22:59:10.631Z,101109.66
2022-12-26T23:01:37.059Z,101108.66
2022-12-26T23:04:03.620Z,101110.06
2022-12-26T23:06:31.921Z,101112.75
2022-12-26T23:08:59.404Z,101116.88
2022-12-26T23:11:32.182Z,101115.66
2022-12-26T23:14:03.472Z,101110.94
2022-12-26T23:16:39.092Z,101111.63
2022-12-26T23:19:43.119Z,101119.53
2022-12-26T23:22:09.992Z,101108.59
2022-12-26T23:24:36.895Z,101114.16
2022-12-26T23:27:26.323Z,101114.88
2022-12-26T23:30:12.594Z,101108.63
2022-12-26T23:32:40.685Z,101110.50
2022-12-26T23:35:08.066Z,101099.91
2022-12-26T23:37:34.396Z,101100.47
2022-12-26T23:40:01.293Z,101096.69
2022-12-26T23:42:27.589Z,101096.44
2022-12-26T23:44:53.956Z,101101.34
2022-12-26T23:47:20.386Z,101107.38
2022-12-26T23:49:46.855Z,101104.09
2022-12-26T23:52:13.296Z,101104.56
2022-12-26T23:54:39.763Z,101098.19
2022-12-26T23:57:06.376Z,101107.53
2022-12-26T23:59:32.765Z,101112.09
